NVSG

Details ICAO NVSG (LOD)
Name Longana
Region Vanuatu
Timezone Pacific/Efate (UTC+11.0)
Plans Departing 0
Arriving 0
Stats Elevation 167 ft / 51 m (AMSL)
Location -15.306666° 167.967222°
Runways 1
Magnetic Variation 10.984° E
Sunrise 2017-12-13 18:13:16 UTC / 2017-12-14 05:13:16 Local
Sunset 2017-12-14 07:14:43 UTC / 2017-12-14 18:14:43 Local
Advertisement - Login to hide

Runways

ID Width Length Bearing (true) Bearing (mag) Surface Threshold Offset Overrun Length
04 164 ft / 50 m 2,331 ft / 711 m 48.62° 37.64° Dirt 0 ft / 0 m 0 ft / 0 m
22 164 ft / 50 m 2,331 ft / 711 m 228.62° 217.64° Dirt 0 ft / 0 m 0 ft / 0 m

Map

Weather


0- 5 10 15 20 25 30 35+ Temperature / ° C

Clouds and Precipitation
Forecast for 2017-12-14 00:00 UTC. Updated an hour ago

Ground ~20,000 ft ~40,000 ft Winds

METAR

NVSG 132300Z 00000KT 9999 SCT020 BKN040 31/26 Q1007 RMK HZ

TAF

Not found
Warning: Do not use this data for real-world aviation or navigation. No guarantee of current accuracy is given.